Time;durP1;ratioP1;P1;durP2;ratioP2;P2;SDS_P1;SDS_P2;PMS_P1;PMS_P2;Temp;Humidity;BMP_temperature;BMP_pressure;BME280_temperature;BME280_humidity;BME280_pressure;Samples;Min_cycle;Max_cycle;Signal;HPM_P1;HPM_P2
2022/04/30 00:00:08;;;;;;;9.43;6.95;;;;;;;23.44;32.77;100012.16;338479;29;1207;-69
2022/04/30 00:00:21;;;;;;;8.40;6.72;;;;;;;23.47;32.79;100009.22;338306;29;1240;-69
2022/04/30 00:00:33;;;;;;;7.60;6.20;;;;;;;23.50;32.82;100009.00;338487;29;1144;-69
2022/04/30 00:00:45;;;;;;;7.45;6.15;;;;;;;23.55;32.50;100010.44;338640;29;1019;-69
2022/04/30 00:00:58;;;;;;;8.93;6.72;;;;;;;23.57;32.49;100008.50;339251;29;1257;-68
2022/04/30 00:01:10;;;;;;;9.32;6.90;;;;;;;23.62;32.66;100011.59;338902;29;1115;-69
2022/04/30 00:01:22;;;;;;;9.20;6.88;;;;;;;23.62;32.65;100006.28;338742;29;1044;-69
2022/04/30 00:01:35;;;;;;;8.20;6.72;;;;;;;23.62;32.85;100014.25;338547;29;1163;-69
2022/04/30 00:01:47;;;;;;;8.63;6.50;;;;;;;23.61;32.38;100009.94;338544;29;1079;-69
2022/04/30 00:01:59;;;;;;;10.48;6.88;;;;;;;23.52;32.63;100004.41;338354;29;1217;-69
2022/04/30 00:02:13;;;;;;;11.02;7.00;;;;;;;23.57;32.68;100008.50;338299;29;1381;-69
2022/04/30 00:02:25;;;;;;;10.05;7.07;;;;;;;23.62;32.77;100008.94;338328;29;1249;-69
2022/04/30 00:02:39;;;;;;;10.45;6.95;;;;;;;23.62;32.44;100008.94;338287;29;1210;-69
2022/04/30 00:02:51;;;;;;;10.00;6.90;;;;;;;23.64;32.96;100004.34;338344;29;1056;-68
2022/04/30 00:03:03;;;;;;;9.70;6.85;;;;;;;23.67;32.62;100006.78;338229;29;1376;-69
2022/04/30 00:03:15;;;;;;;8.07;6.57;;;;;;;23.69;32.61;100007.50;338383;29;1304;-69
2022/04/30 00:03:28;;;;;;;9.48;6.80;;;;;;;23.70;32.59;100006.50;338276;29;1213;-70
2022/04/30 00:03:40;;;;;;;9.57;6.80;;;;;;;23.69;32.47;100012.81;338276;29;1032;-69
2022/04/30 00:03:52;;;;;;;10.02;7.00;;;;;;;23.66;32.32;100005.06;338152;29;1210;-69
2022/04/30 00:04:05;;;;;;;10.30;7.25;;;;;;;23.68;32.65;100011.09;338395;29;1012;-69
2022/04/30 00:04:17;;;;;;;10.50;7.22;;;;;;;23.68;32.51;100000.47;338737;29;1043;-69
2022/04/30 00:04:29;;;;;;;10.18;7.00;;;;;;;23.71;32.65;100006.38;338765;29;895;-69
2022/04/30 00:04:43;;;;;;;10.30;6.97;;;;;;;23.73;32.50;100003.63;340922;29;1145;-68
2022/04/30 00:04:56;;;;;;;10.73;7.30;;;;;;;23.72;32.29;100007.22;340651;29;1709;-69
2022/04/30 00:05:09;;;;;;;10.52;7.60;;;;;;;23.67;32.23;100010.25;340963;29;1258;-69
2022/04/30 00:05:21;;;;;;;12.40;7.93;;;;;;;23.62;32.43;100003.63;339589;29;1047;-68
2022/04/30 00:05:34;;;;;;;12.85;7.70;;;;;;;23.63;32.39;100002.69;339593;29;1255;-69
2022/04/30 00:05:46;;;;;;;10.93;7.43;;;;;;;23.56;32.68;100004.16;339496;29;1076;-69
2022/04/30 00:05:58;;;;;;;9.98;7.22;;;;;;;23.66;32.48;100008.59;339465;29;1347;-70
2022/04/30 00:06:11;;;;;;;9.43;7.15;;;;;;;23.69;32.39;100002.19;339576;29;1096;-70
2022/04/30 00:06:23;;;;;;;8.73;7.18;;;;;;;23.69;32.80;100002.19;339481;29;1028;-69
2022/04/30 00:06:35;;;;;;;9.13;7.35;;;;;;;23.70;32.48;100003.84;340598;29;1077;-69
2022/04/30 00:06:47;;;;;;;9.18;7.15;;;;;;;23.70;32.27;99999.41;339607;29;1244;-69
2022/04/30 00:06:59;;;;;;;10.30;7.50;;;;;;;23.74;32.28;100005.28;338202;29;1055;-69
2022/04/30 00:07:13;;;;;;;10.35;7.55;;;;;;;23.69;32.43;100005.69;338209;29;1063;-70
2022/04/30 00:07:25;;;;;;;9.25;7.22;;;;;;;23.68;32.62;100001.34;338333;29;1346;-69
2022/04/30 00:07:37;;;;;;;8.88;7.28;;;;;;;23.68;33.24;99995.19;339192;29;1062;-68
2022/04/30 00:07:49;;;;;;;8.80;7.10;;;;;;;23.67;33.30;100004.13;338795;29;1063;-69
2022/04/30 00:08:06;;;;;;;9.05;7.38;;;;;;;23.68;33.00;100006.66;338620;29;1076;-68
2022/04/30 00:08:18;;;;;;;10.23;7.90;;;;;;;23.62;33.47;99995.69;338545;29;1109;-69
2022/04/30 00:08:30;;;;;;;11.13;7.90;;;;;;;23.66;33.39;99999.78;338307;29;1458;-70
2022/04/30 00:08:42;;;;;;;10.48;7.90;;;;;;;23.62;33.34;100001.81;338724;29;1092;-70
2022/04/30 00:08:54;;;;;;;11.18;8.23;;;;;;;23.62;33.29;100001.00;338626;29;1063;-70
2022/04/30 00:09:06;;;;;;;10.57;7.78;;;;;;;23.59;33.30;100001.25;338596;29;1192;-70
2022/04/30 00:09:18;;;;;;;11.48;7.65;;;;;;;23.57;33.33;100006.69;338787;29;1253;-69
2022/04/30 00:09:31;;;;;;;12.52;7.72;;;;;;;23.63;33.34;100002.69;338600;29;1064;-70
2022/04/30 00:09:44;;;;;;;13.18;7.90;;;;;;;23.50;33.39;100003.69;338584;29;1050;-69
2022/04/30 00:09:56;;;;;;;12.23;7.95;;;;;;;23.39;33.24;100001.06;338777;29;1069;-69
2022/04/30 00:10:08;;;;;;;12.20;8.32;;;;;;;23.43;33.44;99999.84;338438;29;1236;-69
2022/04/30 00:10:20;;;;;;;11.55;8.20;;;;;;;23.46;33.46;100006.69;338554;29;1039;-69
2022/04/30 00:10:37;;;;;;;12.55;8.10;;;;;;;23.48;33.24;100000.31;338537;29;1118;-70
2022/04/30 00:10:50;;;;;;;12.98;8.45;;;;;;;23.58;33.45;100003.03;338647;29;1020;-70
2022/04/30 00:11:03;;;;;;;13.88;8.70;;;;;;;23.59;33.31;100006.56;338735;29;937;-69
2022/04/30 00:11:15;;;;;;;15.45;8.85;;;;;;;23.62;32.99;99998.34;338508;29;1028;-69
2022/04/30 00:11:27;;;;;;;14.55;8.85;;;;;;;23.66;33.39;100002.41;338461;29;1239;-68
2022/04/30 00:11:39;;;;;;;12.93;8.48;;;;;;;23.55;33.33;99994.50;338245;29;1299;-68
2022/04/30 00:11:51;;;;;;;12.57;8.57;;;;;;;23.42;33.43;99995.50;338341;29;1059;-69
2022/04/30 00:12:04;;;;;;;12.82;8.70;;;;;;;23.31;33.62;99998.19;338312;29;1056;-69
2022/04/30 00:12:17;;;;;;;12.40;9.10;;;;;;;23.26;33.94;100000.34;338171;29;1086;-69
2022/04/30 00:12:31;;;;;;;12.75;9.15;;;;;;;23.30;33.92;99996.47;338050;29;1157;-69
2022/04/30 00:12:43;;;;;;;12.73;9.10;;;;;;;23.20;34.09;99999.03;338068;29;1077;-69
2022/04/30 00:12:55;;;;;;;12.63;9.00;;;;;;;23.23;34.01;100003.25;338177;29;1556;-69
2022/04/30 00:13:10;;;;;;;12.30;9.10;;;;;;;23.23;34.42;100001.44;338306;29;1289;-69
2022/04/30 00:13:22;;;;;;;13.30;9.30;;;;;;;23.32;34.13;99999.84;338191;29;1236;-69
2022/04/30 00:13:37;;;;;;;14.48;9.60;;;;;;;23.38;34.17;99999.38;338173;29;1113;-69
2022/04/30 00:13:49;;;;;;;14.68;9.32;;;;;;;23.43;34.14;100002.50;338770;29;1007;-69
2022/04/30 00:14:01;;;;;;;13.35;8.90;;;;;;;23.45;34.19;99994.41;338683;29;1077;-69
2022/04/30 00:14:13;;;;;;;13.73;9.10;;;;;;;23.51;34.12;99993.91;338538;29;1082;-69
2022/04/30 00:14:26;;;;;;;13.90;9.23;;;;;;;23.56;34.21;99997.00;338469;29;1046;-68
2022/04/30 00:14:39;;;;;;;14.82;9.20;;;;;;;23.62;33.96;100001.00;338739;29;1073;-69
2022/04/30 00:14:54;;;;;;;12.80;8.88;;;;;;;23.53;34.07;99998.13;338227;29;1168;-69
2022/04/30 00:15:06;;;;;;;11.15;8.73;;;;;;;23.57;33.79;99996.06;338596;29;1314;-69
2022/04/30 00:15:20;;;;;;;13.18;9.00;;;;;;;23.44;33.97;99998.00;338564;29;1027;-70
2022/04/30 00:15:34;;;;;;;14.50;9.25;;;;;;;23.35;34.00;99994.31;338650;29;1300;-70
2022/04/30 00:15:46;;;;;;;16.95;9.70;;;;;;;23.42;33.93;99998.16;338751;29;1099;-70
2022/04/30 00:15:59;;;;;;;18.35;10.00;;;;;;;23.41;34.08;99993.81;338500;29;1104;-70
2022/04/30 00:16:12;;;;;;;16.65;9.95;;;;;;;23.37;34.14;99999.50;338736;29;1152;-69
2022/04/30 00:16:24;;;;;;;13.82;9.57;;;;;;;23.28;34.15;99993.09;338772;29;1098;-69
2022/04/30 00:16:38;;;;;;;14.60;9.55;;;;;;;23.42;33.99;99995.50;338331;29;1358;-69
2022/04/30 00:16:50;;;;;;;14.60;9.30;;;;;;;23.48;34.11;99997.66;338700;29;1391;-69
2022/04/30 00:17:02;;;;;;;13.98;9.40;;;;;;;23.40;34.08;99994.78;338327;29;1075;-70
2022/04/30 00:17:15;;;;;;;14.20;9.55;;;;;;;23.39;34.06;99998.41;338592;29;1809;-69
2022/04/30 00:17:27;;;;;;;13.45;9.88;;;;;;;23.43;34.21;99989.22;338371;29;1044;-69
2022/04/30 00:17:39;;;;;;;14.13;10.23;;;;;;;23.48;33.70;100000.31;338449;29;1200;-68
2022/04/30 00:17:51;;;;;;;13.57;9.60;;;;;;;23.49;33.84;99993.19;338429;29;1119;-68
2022/04/30 00:18:03;;;;;;;12.80;9.52;;;;;;;23.52;33.81;99999.09;338574;29;1030;-69
2022/04/30 00:18:15;;;;;;;13.20;9.60;;;;;;;23.42;34.04;99990.22;338325;29;1261;-69
2022/04/30 00:18:27;;;;;;;14.13;9.88;;;;;;;23.08;34.88;99995.56;338687;29;1097;-69
2022/04/30 00:18:39;;;;;;;16.00;10.35;;;;;;;23.08;34.94;99998.22;338730;29;1039;-69
2022/04/30 00:18:51;;;;;;;15.18;10.43;;;;;;;23.02;34.82;100000.47;338705;29;1189;-69
2022/04/30 00:19:06;;;;;;;14.73;10.20;;;;;;;23.17;34.82;99995.78;338434;29;1069;-69
2022/04/30 00:19:20;;;;;;;14.73;10.32;;;;;;;23.20;34.47;99993.75;338613;29;1067;-69
2022/04/30 00:19:33;;;;;;;14.18;9.70;;;;;;;23.21;34.25;100002.53;337953;29;2235;-69
2022/04/30 00:19:45;;;;;;;14.65;9.70;;;;;;;23.28;34.57;99993.09;337982;29;1196;-69
2022/04/30 00:19:57;;;;;;;16.67;10.23;;;;;;;23.34;34.41;99997.91;338540;29;1138;-69
2022/04/30 00:20:09;;;;;;;16.92;10.40;;;;;;;23.37;34.64;99996.84;338630;29;1126;-69
2022/04/30 00:20:21;;;;;;;14.82;10.13;;;;;;;23.33;34.27;99996.25;338608;29;1032;-69
2022/04/30 00:20:36;;;;;;;14.07;10.05;;;;;;;23.24;34.80;99996.97;338653;29;1276;-69
2022/04/30 00:20:48;;;;;;;13.38;10.25;;;;;;;23.22;34.65;99994.47;338438;29;900;-69
2022/04/30 00:21:00;;;;;;;14.88;10.68;;;;;;;23.29;34.48;99993.00;338572;29;1057;-69
2022/04/30 00:21:12;;;;;;;15.10;10.45;;;;;;;23.22;34.50;99998.91;338306;29;1172;-69
2022/04/30 00:21:25;;;;;;;13.85;10.05;;;;;;;23.16;34.84;99999.38;338584;29;1283;-69
2022/04/30 00:21:37;;;;;;;13.85;9.82;;;;;;;23.08;34.96;100002.66;337223;29;1061;-69
2022/04/30 00:21:50;;;;;;;14.77;9.98;;;;;;;23.15;34.77;99997.72;337025;29;1016;-68
2022/04/30 00:22:03;;;;;;;14.35;10.30;;;;;;;23.29;34.53;100000.09;337305;29;882;-69
2022/04/30 00:22:15;;;;;;;14.25;10.40;;;;;;;23.21;34.54;100005.19;337201;29;1071;-69
2022/04/30 00:22:27;;;;;;;16.02;10.18;;;;;;;23.27;34.46;100002.88;336608;29;1379;-69
2022/04/30 00:22:39;;;;;;;16.52;10.10;;;;;;;23.37;34.31;100004.81;338163;29;1005;-69
2022/04/30 00:22:51;;;;;;;16.25;10.27;;;;;;;23.43;34.49;100002.50;338080;29;1029;-69
2022/04/30 00:23:05;;;;;;;15.45;10.23;;;;;;;23.51;34.30;100005.38;337463;29;1705;-69
2022/04/30 00:23:20;;;;;;;15.93;10.13;;;;;;;23.61;34.29;99997.50;336973;29;1060;-68
2022/04/30 00:23:33;;;;;;;15.63;10.38;;;;;;;23.65;33.80;99998.09;337084;29;1077;-69
2022/04/30 00:23:45;;;;;;;16.65;10.45;;;;;;;23.69;33.80;100004.84;336980;29;1040;-69
2022/04/30 00:23:57;;;;;;;16.38;10.57;;;;;;;23.70;34.10;99999.41;337279;29;781;-69
2022/04/30 00:24:09;;;;;;;15.45;10.25;;;;;;;23.71;33.93;100003.75;337077;29;1224;-69
2022/04/30 00:24:22;;;;;;;16.08;10.20;;;;;;;23.76;33.98;99998.03;337062;29;1053;-69
2022/04/30 00:24:35;;;;;;;16.63;9.98;;;;;;;23.78;34.10;99998.78;338042;29;1168;-69
2022/04/30 00:24:48;;;;;;;16.50;9.90;;;;;;;23.82;33.89;100005.53;338257;29;1146;-69
2022/04/30 00:25:00;;;;;;;15.07;9.75;;;;;;;23.69;34.10;100012.81;338165;29;1173;-69
2022/04/30 00:25:14;;;;;;;15.50;10.27;;;;;;;23.57;33.78;100003.19;338255;29;1051;-69
2022/04/30 00:25:26;;;;;;;15.93;10.48;;;;;;;23.32;34.34;99999.84;338222;29;1067;-69
2022/04/30 00:25:38;;;;;;;17.27;10.57;;;;;;;23.39;34.25;100002.88;338466;29;1094;-68
2022/04/30 00:25:55;;;;;;;18.58;10.43;;;;;;;23.46;34.54;100006.69;338387;29;1027;-69
2022/04/30 00:26:07;;;;;;;17.98;10.07;;;;;;;23.51;34.43;100008.00;338355;29;1174;-69
2022/04/30 00:26:19;;;;;;;15.32;9.95;;;;;;;23.29;34.21;100000.09;339783;29;1855;-69
2022/04/30 00:26:31;;;;;;;13.30;9.85;;;;;;;23.22;34.95;100004.19;339827;29;1195;-70
2022/04/30 00:26:43;;;;;;;14.73;10.15;;;;;;;23.22;35.11;99999.75;339844;29;963;-69
2022/04/30 00:26:56;;;;;;;16.27;10.45;;;;;;;23.04;35.27;100002.06;339536;29;1065;-69
2022/04/30 00:27:10;;;;;;;17.00;10.88;;;;;;;23.07;35.35;100007.13;339674;29;1076;-68
2022/04/30 00:27:22;;;;;;;17.30;10.98;;;;;;;23.23;34.73;100005.91;339524;29;1072;-69
2022/04/30 00:27:34;;;;;;;15.73;10.50;;;;;;;23.24;34.64;100002.28;339982;29;910;-69
2022/04/30 00:27:46;;;;;;;16.75;10.55;;;;;;;23.27;34.62;100002.88;339611;29;1154;-70
2022/04/30 00:27:58;;;;;;;17.90;10.93;;;;;;;23.27;35.00;100010.84;337217;29;1186;-69
2022/04/30 00:28:10;;;;;;;20.02;11.10;;;;;;;23.13;35.04;100011.09;337274;29;1075;-69
2022/04/30 00:28:25;;;;;;;20.90;11.60;;;;;;;23.06;34.90;100005.44;338647;29;863;-69
2022/04/30 00:28:37;;;;;;;20.25;11.27;;;;;;;23.05;35.42;100003.75;338490;29;1024;-69
2022/04/30 00:28:49;;;;;;;19.75;11.13;;;;;;;23.06;34.88;100008.09;338451;29;1028;-69
2022/04/30 00:29:01;;;;;;;17.77;11.25;;;;;;;23.19;35.12;100007.13;338699;29;743;-69
2022/04/30 00:29:13;;;;;;;17.55;11.13;;;;;;;23.30;34.61;100007.94;338592;29;1043;-68
2022/04/30 00:29:29;;;;;;;18.73;10.70;;;;;;;23.42;34.52;100007.91;338295;29;1019;-69
2022/04/30 00:29:41;;;;;;;19.85;10.57;;;;;;;23.50;34.65;100011.66;338342;29;1069;-69
2022/04/30 00:29:54;;;;;;;17.85;10.38;;;;;;;23.47;34.52;100009.22;338267;29;1008;-69
2022/04/30 00:30:06;;;;;;;16.75;10.57;;;;;;;23.46;34.35;100006.69;339411;29;1061;-69
2022/04/30 00:30:18;;;;;;;16.15;10.50;;;;;;;23.31;34.38;100003.47;339617;29;1052;-69
2022/04/30 00:30:30;;;;;;;18.05;10.70;;;;;;;23.17;34.75;100009.06;337391;29;1081;-69
2022/04/30 00:30:44;;;;;;;18.77;11.07;;;;;;;23.27;34.73;100005.53;337302;29;1125;-69
2022/04/30 00:30:56;;;;;;;19.05;11.27;;;;;;;23.22;35.06;99998.91;337570;29;1131;-69
2022/04/30 00:31:08;;;;;;;18.48;11.32;;;;;;;23.23;34.65;100005.91;337744;29;1418;-69
2022/04/30 00:31:20;;;;;;;18.35;11.10;;;;;;;22.85;35.33;100001.78;338442;29;1080;-69
2022/04/30 00:31:32;;;;;;;18.27;11.43;;;;;;;22.81;35.81;100006.47;338637;29;1467;-70
2022/04/30 00:31:45;;;;;;;18.10;11.68;;;;;;;22.82;35.48;100002.00;338676;29;1104;-70
2022/04/30 00:32:00;;;;;;;18.75;11.85;;;;;;;22.68;35.79;100003.94;338478;29;1101;-69
2022/04/30 00:32:13;;;;;;;18.38;11.43;;;;;;;22.89;35.46;100003.25;338573;29;1028;-69
2022/04/30 00:32:25;;;;;;;17.08;10.85;;;;;;;23.05;35.23;100008.22;338740;29;1424;-68
2022/04/30 00:32:37;;;;;;;17.17;10.57;;;;;;;23.03;35.37;100005.66;338708;29;1111;-68
2022/04/30 00:32:51;;;;;;;17.45;10.60;;;;;;;22.81;35.41;100003.00;338342;29;1798;-69
2022/04/30 00:33:08;;;;;;;19.27;11.20;;;;;;;22.78;36.04;100005.88;338320;29;1385;-69
2022/04/30 00:33:20;;;;;;;19.75;11.57;;;;;;;22.79;35.82;99999.63;338589;29;1064;-69
2022/04/30 00:33:32;;;;;;;17.60;11.35;;;;;;;22.73;36.11;99998.28;338280;29;1058;-69
2022/04/30 00:33:48;;;;;;;17.17;11.32;;;;;;;22.82;35.67;100002.00;338080;29;2322;-68
2022/04/30 00:34:00;;;;;;;17.98;10.65;;;;;;;22.93;35.71;100004.69;337264;29;1038;-69
2022/04/30 00:34:12;;;;;;;18.55;10.45;;;;;;;22.71;35.81;100001.06;337441;29;1051;-70
2022/04/30 00:34:24;;;;;;;18.02;10.88;;;;;;;22.91;35.58;100001.31;337755;29;1237;-69
2022/04/30 00:34:36;;;;;;;17.50;11.00;;;;;;;22.84;35.76;100005.38;337429;29;1341;-69
2022/04/30 00:34:48;;;;;;;16.88;10.98;;;;;;;22.65;36.44;100001.53;337137;29;1121;-70
2022/04/30 00:35:01;;;;;;;17.20;11.23;;;;;;;22.86;35.69;99998.19;337200;29;1343;-69
2022/04/30 00:35:14;;;;;;;18.08;11.20;;;;;;;22.84;35.94;100000.09;337371;29;1783;-69
2022/04/30 00:35:26;;;;;;;17.60;11.02;;;;;;;22.62;36.01;100004.44;337220;29;1714;-69
2022/04/30 00:35:39;;;;;;;16.58;10.68;;;;;;;22.65;36.06;100001.53;338248;29;1059;-70
2022/04/30 00:35:52;;;;;;;17.23;10.90;;;;;;;22.39;36.51;100008.84;339686;29;1300;-69
2022/04/30 00:36:04;;;;;;;18.77;11.90;;;;;;;22.62;36.61;100001.78;339449;29;1259;-69
2022/04/30 00:36:16;;;;;;;18.23;11.95;;;;;;;22.59;36.34;100002.00;339612;29;1067;-69
2022/04/30 00:36:29;;;;;;;20.02;11.90;;;;;;;22.69;36.32;100000.31;339714;29;1310;-69
2022/04/30 00:36:41;;;;;;;22.75;11.57;;;;;;;22.84;35.90;99994.78;339404;29;1024;-69
2022/04/30 00:36:53;;;;;;;22.50;11.57;;;;;;;22.97;35.87;99998.16;339581;29;1129;-69
2022/04/30 00:37:05;;;;;;;20.20;11.73;;;;;;;22.90;35.83;100004.94;339456;29;1264;-69
2022/04/30 00:37:17;;;;;;;18.90;11.45;;;;;;;22.78;36.20;99992.63;339393;29;1088;-69
2022/04/30 00:37:30;;;;;;;18.98;11.40;;;;;;;22.64;36.36;99999.03;339447;29;1253;-69
2022/04/30 00:37:42;;;;;;;19.23;11.52;;;;;;;22.68;36.33;100006.59;339199;29;1263;-68
2022/04/30 00:37:54;;;;;;;19.80;11.75;;;;;;;22.67;36.27;99999.59;339087;29;1910;-68
2022/04/30 00:38:06;;;;;;;19.00;11.68;;;;;;;22.65;36.06;100001.53;338605;29;1185;-68
2022/04/30 00:38:18;;;;;;;20.70;12.27;;;;;;;22.60;36.20;100002.88;338635;29;1208;-69
2022/04/30 00:38:30;;;;;;;20.08;12.15;;;;;;;22.82;36.05;100002.88;338633;29;1063;-69
2022/04/30 00:38:42;;;;;;;18.20;11.30;;;;;;;22.72;36.13;100005.41;338640;29;1292;-69
2022/04/30 00:38:55;;;;;;;20.73;11.38;;;;;;;22.94;36.10;100004.56;338549;29;1039;-69
2022/04/30 00:39:07;;;;;;;22.92;11.65;;;;;;;22.90;35.95;99999.63;338443;29;1331;-69
2022/04/30 00:39:19;;;;;;;22.60;12.02;;;;;;;22.96;35.90;99992.97;338345;29;1270;-69
2022/04/30 00:39:32;;;;;;;21.08;11.98;;;;;;;23.07;35.60;100003.63;338546;29;1027;-69
2022/04/30 00:39:44;;;;;;;18.55;11.75;;;;;;;23.17;35.38;100001.94;338494;29;1036;-69
2022/04/30 00:39:56;;;;;;;18.25;11.85;;;;;;;23.27;35.41;100002.88;338767;29;1254;-69
2022/04/30 00:40:10;;;;;;;19.60;12.10;;;;;;;23.34;35.42;99997.91;338559;29;1729;-69
2022/04/30 00:40:22;;;;;;;21.10;12.25;;;;;;;23.41;35.09;99996.47;338548;29;1302;-68
2022/04/30 00:40:34;;;;;;;19.48;11.95;;;;;;;23.44;35.41;99995.38;338728;29;1048;-69
2022/04/30 00:40:46;;;;;;;17.88;11.70;;;;;;;23.48;35.36;99995.00;338548;29;1267;-69
2022/04/30 00:40:58;;;;;;;18.17;12.02;;;;;;;23.52;35.16;99996.44;338625;29;1251;-69
2022/04/30 00:41:10;;;;;;;18.95;12.25;;;;;;;23.43;35.32;99997.19;338532;29;1085;-68
2022/04/30 00:41:23;;;;;;;19.45;12.00;;;;;;;23.39;35.50;100001.06;338640;29;1060;-69
2022/04/30 00:41:36;;;;;;;20.58;11.65;;;;;;;23.36;35.36;99998.63;338711;29;1086;-70
2022/04/30 00:41:48;;;;;;;20.60;11.80;;;;;;;23.31;35.25;99998.19;338628;29;1200;-69
2022/04/30 00:42:01;;;;;;;20.45;11.52;;;;;;;23.38;34.93;100001.16;338366;29;1067;-69
2022/04/30 00:42:13;;;;;;;19.27;11.27;;;;;;;23.32;35.13;100002.50;338479;29;1260;-69
2022/04/30 00:42:25;;;;;;;20.13;11.60;;;;;;;23.35;35.17;100004.91;338431;29;1077;-69
2022/04/30 00:42:38;;;;;;;19.75;11.80;;;;;;;23.15;35.74;99995.06;338719;29;1104;-69
2022/04/30 00:42:50;;;;;;;19.77;11.90;;;;;;;23.27;35.50;99996.75;338546;29;1064;-69
2022/04/30 00:43:02;;;;;;;19.45;11.82;;;;;;;23.33;35.32;99997.06;338639;29;1252;-69
2022/04/30 00:43:14;;;;;;;18.25;11.40;;;;;;;23.44;35.25;99998.88;338630;29;1299;-69
2022/04/30 00:43:26;;;;;;;17.45;11.15;;;;;;;23.52;34.92;100000.88;338619;29;1064;-69
2022/04/30 00:43:46;;;;;;;17.23;10.95;;;;;;;23.62;34.81;99999.16;338566;29;1291;-69
2022/04/30 00:44:00;;;;;;;17.40;11.70;;;;;;;23.66;34.96;99997.13;338012;29;1036;-69
2022/04/30 00:44:18;;;;;;;18.00;11.90;;;;;;;23.73;34.70;99993.00;338346;29;1306;-69
2022/04/30 00:44:30;;;;;;;17.63;11.25;;;;;;;23.66;34.47;99997.97;338643;29;1631;-69
2022/04/30 00:44:43;;;;;;;18.10;11.80;;;;;;;23.67;34.87;99998.81;338654;29;1084;-69
2022/04/30 00:44:55;;;;;;;16.77;11.75;;;;;;;23.65;34.69;99990.97;338398;29;1020;-69
2022/04/30 00:45:08;;;;;;;18.80;11.50;;;;;;;23.63;34.46;99992.06;338197;29;1084;-69
2022/04/30 00:45:20;;;;;;;19.23;11.60;;;;;;;23.59;34.68;99995.94;338317;29;1290;-69
2022/04/30 00:45:33;;;;;;;19.60;11.60;;;;;;;23.58;34.56;99995.09;338360;29;1116;-69
2022/04/30 00:45:48;;;;;;;17.65;11.27;;;;;;;23.51;35.10;99994.75;338188;29;1318;-69
2022/04/30 00:46:00;;;;;;;18.50;11.52;;;;;;;23.62;34.98;99993.88;338564;29;997;-69
2022/04/30 00:46:13;;;;;;;18.33;11.55;;;;;;;23.66;34.66;99997.97;338312;29;1112;-69
2022/04/30 00:46:28;;;;;;;17.48;11.70;;;;;;;23.70;34.69;99998.53;338297;29;1052;-69
2022/04/30 00:46:40;;;;;;;18.05;12.02;;;;;;;23.74;35.10;99994.66;338636;29;1076;-70
2022/04/30 00:46:53;;;;;;;17.70;11.75;;;;;;;23.79;34.88;99999.66;338299;29;1073;-70
2022/04/30 00:47:06;;;;;;;18.48;11.65;;;;;;;23.65;34.89;99998.09;338519;29;1089;-70
2022/04/30 00:47:19;;;;;;;21.25;12.23;;;;;;;23.73;34.78;99999.16;338184;29;1307;-69
2022/04/30 00:47:31;;;;;;;22.08;12.50;;;;;;;23.65;34.61;99995.44;336017;29;1081;-70
2022/04/30 00:47:43;;;;;;;23.08;12.27;;;;;;;23.31;35.12;99992.88;335812;29;1066;-69
2022/04/30 00:47:56;;;;;;;23.15;11.95;;;;;;;23.30;35.34;99993.81;336069;29;1097;-69
2022/04/30 00:48:08;;;;;;;21.77;11.65;;;;;;;23.28;35.48;99996.63;335874;29;1136;-69
2022/04/30 00:48:20;;;;;;;19.00;11.70;;;;;;;23.15;35.71;99997.72;336102;29;1077;-69
2022/04/30 00:48:33;;;;;;;21.25;11.88;;;;;;;23.07;35.72;99996.50;335700;29;2224;-68
2022/04/30 00:48:46;;;;;;;23.67;12.27;;;;;;;23.15;35.77;100003.03;338260;29;1034;-70
2022/04/30 00:48:58;;;;;;;21.70;11.90;;;;;;;23.11;35.44;99997.13;338314;29;1077;-69
2022/04/30 00:49:11;;;;;;;19.77;11.40;;;;;;;23.02;35.52;99995.19;339182;29;1296;-70
2022/04/30 00:49:23;;;;;;;18.65;11.20;;;;;;;23.10;35.59;99993.63;339583;29;1258;-69
2022/04/30 00:49:35;;;;;;;17.98;11.60;;;;;;;23.08;35.46;99998.22;339174;29;1223;-70
2022/04/30 00:49:47;;;;;;;18.58;12.10;;;;;;;23.16;35.59;99999.38;339440;29;1229;-70
2022/04/30 00:50:00;;;;;;;18.38;11.98;;;;;;;23.01;35.90;99996.97;339686;29;1100;-69
2022/04/30 00:50:15;;;;;;;19.58;12.15;;;;;;;23.17;35.77;99995.78;339472;29;1294;-69
2022/04/30 00:50:28;;;;;;;20.42;12.20;;;;;;;23.28;35.67;99993.97;339156;29;2255;-70
2022/04/30 00:50:41;;;;;;;20.27;12.23;;;;;;;23.33;35.19;99985.63;340690;29;1070;-70
2022/04/30 00:50:53;;;;;;;18.92;12.35;;;;;;;23.40;35.12;99996.59;338574;29;1347;-69
2022/04/30 00:51:09;;;;;;;18.23;12.13;;;;;;;23.38;35.64;99994.06;338682;29;1190;-70
2022/04/30 00:51:23;;;;;;;19.35;11.77;;;;;;;23.41;35.54;99992.97;338352;29;1064;-69
2022/04/30 00:51:38;;;;;;;20.58;11.77;;;;;;;23.42;35.15;99995.50;337500;29;1339;-69
2022/04/30 00:51:52;;;;;;;19.13;11.73;;;;;;;23.45;35.43;100000.56;338345;29;2072;-69
2022/04/30 00:52:05;;;;;;;19.25;11.68;;;;;;;23.43;35.04;99994.53;338612;29;1043;-69
2022/04/30 00:52:17;;;;;;;19.13;11.52;;;;;;;23.26;35.55;99989.72;338377;29;1113;-70
2022/04/30 00:52:30;;;;;;;20.08;11.30;;;;;;;23.26;35.75;99995.03;338619;29;1386;-70
2022/04/30 00:52:46;;;;;;;23.42;11.88;;;;;;;23.16;35.51;99994.97;338564;29;1243;-69
2022/04/30 00:52:59;;;;;;;22.63;12.68;;;;;;;23.23;35.43;99998.78;338247;29;1427;-69
2022/04/30 00:53:15;;;;;;;20.25;12.38;;;;;;;23.26;35.52;99995.03;338374;29;1185;-69
2022/04/30 00:53:27;;;;;;;20.52;12.00;;;;;;;22.66;36.60;99992.63;338329;29;1240;-69
2022/04/30 00:53:47;;;;;;;20.33;12.30;;;;;;;22.82;36.30;99996.72;338519;29;1043;-70
2022/04/30 00:54:01;;;;;;;21.10;12.90;;;;;;;22.86;36.66;99998.19;338444;29;1776;-70
2022/04/30 00:54:14;;;;;;;24.65;12.63;;;;;;;22.88;36.23;99994.44;338429;29;1276;-70
2022/04/30 00:54:32;;;;;;;23.27;12.20;;;;;;;22.53;36.91;100002.47;338409;29;1096;-70
2022/04/30 00:54:49;;;;;;;20.38;12.50;;;;;;;22.53;37.34;99995.38;338291;29;1148;-69
2022/04/30 00:55:07;;;;;;;20.92;13.00;;;;;;;22.58;36.83;99987.09;338497;29;1196;-67
2022/04/30 00:55:22;;;;;;;21.00;12.60;;;;;;;22.66;36.57;99997.94;339778;29;1154;-70
2022/04/30 00:55:36;;;;;;;19.98;12.32;;;;;;;22.73;36.96;99993.81;339547;29;1119;-69
2022/04/30 00:55:49;;;;;;;20.33;12.05;;;;;;;22.55;36.82;99997.91;339552;29;1183;-69
2022/04/30 00:56:02;;;;;;;19.98;12.00;;;;;;;22.45;37.34;99999.59;339635;29;1056;-70
2022/04/30 00:56:27;;;;;;;17.80;11.85;;;;;;;22.43;37.66;99993.56;339574;29;1150;-69
2022/04/30 00:56:56;;;;;;;20.42;11.93;;;;;;;22.34;37.38;99998.59;339459;29;1267;-69
2022/04/30 00:57:11;;;;;;;21.95;12.60;;;;;;;22.07;37.88;100000.66;339495;29;1039;-69
2022/04/30 00:57:25;;;;;;;20.00;12.50;;;;;;;22.15;38.07;99995.63;338466;29;2028;-69
2022/04/30 00:57:41;;;;;;;19.85;12.48;;;;;;;22.28;37.85;100003.53;338336;29;1075;-69
2022/04/30 00:57:56;;;;;;;22.58;12.98;;;;;;;22.12;38.09;100006.44;338602;29;1277;-69
2022/04/30 00:58:12;;;;;;;22.00;13.15;;;;;;;21.77;38.11;99999.31;338409;29;1089;-69
2022/04/30 00:58:24;;;;;;;20.33;13.43;;;;;;;22.02;38.26;100002.81;337407;29;1213;-69
2022/04/30 00:58:40;;;;;;;21.08;13.15;;;;;;;22.09;38.07;99999.59;337094;29;1020;-68
2022/04/30 00:58:54;;;;;;;22.00;13.00;;;;;;;22.29;37.54;99997.25;337402;29;1082;-69
2022/04/30 00:59:06;;;;;;;21.65;13.00;;;;;;;22.23;38.06;99995.88;337746;29;1054;-69
2022/04/30 00:59:19;;;;;;;23.20;13.07;;;;;;;22.45;37.43;99995.13;337425;29;1618;-69
2022/04/30 00:59:32;;;;;;;23.92;13.60;;;;;;;22.54;37.37;99993.59;337461;29;1895;-69
2022/04/30 00:59:45;;;;;;;22.13;13.23;;;;;;;22.58;37.20;99989.72;337427;29;1295;-69
2022/04/30 00:59:59;;;;;;;20.42;13.10;;;;;;;22.60;37.46;100001.06;338535;29;1216;-69
2022/04/30 01:00:12;;;;;;;20.35;12.70;;;;;;;22.65;37.04;99990.09;338527;29;1294;-69
2022/04/30 01:00:26;;;;;;;20.58;12.60;;;;;;;22.56;37.06;99993.44;338748;29;1020;-69
2022/04/30 01:00:40;;;;;;;21.33;13.40;;;;;;;22.58;37.24;99999.47;338516;29;1169;-69
2022/04/30 01:00:54;;;;;;;22.52;13.30;;;;;;;22.33;37.69;100002.22;338678;29;1073;-69
2022/04/30 01:01:06;;;;;;;22.40;12.98;;;;;;;22.20;38.25;100001.41;338712;29;1059;-69
2022/04/30 01:01:19;;;;;;;20.58;13.27;;;;;;;22.38;37.70;100004.50;338434;29;1191;-68